CheckWX is a tool to help pilots better visualize weather data.  It is not intended as a substitute for an official pre-flight weather briefing.

17:08:11 UTC

8D3 METAR
Sisseton Municipal Airport
Sisseton, South Dakota, USA
Current

1 hour ago

K8D3 211556Z AUTO 35008KT 23/16 A3013 RMK AO1 SLP188 T02280156
Observed
Jul-21 @ 15:56 UTC
Wind
  • 350° at 8 KTS
Visibility
Temperature
23°C / 73°F
Dewpoint
16°C / 61°F
Humidity
65%
Altimeter
30.13" Hg
Pressure
1020.32 hPa
Previous

2 hours ago

K8D3 211456Z AUTO 34005KT 21/16 A3011 RMK AO1 SLP184 T02110156 50014
Observed
Jul-21 @ 14:56 UTC
Wind
  • 340° at 5 KTS
Visibility
Temperature
21°C / 70°F
Dewpoint
16°C / 61°F
Humidity
73%
Altimeter
30.11" Hg
Pressure
1019.62 hPa
Previous

3 hours ago

K8D3 211356Z AUTO 32006KT 19/16 A3012 RMK AO1 SLP184 T01940156
Observed
Jul-21 @ 13:56 UTC
Wind
  • 320° at 6 KTS
Visibility
Temperature
19°C / 66°F
Dewpoint
16°C / 61°F
Humidity
83%
Altimeter
30.12" Hg
Pressure
1020.02 hPa